createdAt,value
2022-12-27T00:01:00.782Z,82.61
2022-12-27T00:03:41.484Z,82.59
2022-12-27T00:09:52.221Z,82.96
2022-12-27T00:18:41.844Z,82.78
2022-12-27T00:28:26.937Z,83.43
2022-12-27T00:31:29.616Z,83.34
2022-12-27T00:34:09.253Z,83.44
2022-12-27T00:36:44.197Z,83.78
2022-12-27T00:42:28.982Z,83.55
2022-12-27T00:51:50.120Z,83.61
2022-12-27T00:54:34.175Z,83.75
2022-12-27T01:06:34.774Z,83.96
2022-12-27T01:09:17.355Z,84.26
2022-12-27T01:11:55.232Z,84.48
2022-12-27T01:14:27.667Z,84.41
2022-12-27T01:24:05.327Z,84.75
2022-12-27T01:35:00.178Z,85.22
2022-12-27T01:37:35.579Z,85.06
2022-12-27T01:40:18.076Z,85.08
2022-12-27T01:42:58.936Z,85.08
2022-12-27T01:48:35.622Z,85.44
2022-12-27T01:53:58.239Z,86.05
2022-12-27T01:56:42.647Z,85.75
2022-12-27T01:59:21.997Z,85.86
2022-12-27T02:01:58.169Z,85.86
2022-12-27T02:04:49.987Z,86.23
2022-12-27T02:07:37.792Z,86.00
2022-12-27T02:12:49.651Z,86.00
2022-12-27T02:15:21.591Z,86.39
2022-12-27T02:17:58.738Z,86.52
2022-12-27T02:20:44.265Z,86.65
2022-12-27T02:24:02.520Z,86.73
2022-12-27T02:27:10.699Z,86.66
2022-12-27T02:30:03.597Z,86.56
2022-12-27T02:33:02.502Z,86.64
2022-12-27T02:35:54.840Z,86.48
2022-12-27T02:38:48.976Z,86.63
2022-12-27T02:41:38.948Z,86.20
2022-12-27T02:51:43.808Z,86.33
2022-12-27T03:04:52.815Z,85.82
2022-12-27T03:11:55.564Z,85.53
2022-12-27T03:14:59.763Z,85.06
2022-12-27T03:17:46.135Z,85.28
2022-12-27T03:23:53.906Z,85.24
2022-12-27T03:26:34.845Z,85.00
2022-12-27T03:29:36.501Z,85.05
2022-12-27T03:32:36.633Z,85.01
2022-12-27T03:39:00.982Z,85.30
2022-12-27T03:44:43.415Z,85.67
2022-12-27T03:47:40.319Z,85.41
2022-12-27T03:50:22.825Z,85.73
2022-12-27T03:53:15.252Z,85.51
2022-12-27T03:58:45.704Z,85.76
2022-12-27T04:01:29.236Z,85.77
2022-12-27T04:04:08.117Z,85.68
2022-12-27T04:10:33.199Z,85.99
2022-12-27T04:16:50.427Z,85.57
2022-12-27T04:23:03.889Z,85.96
2022-12-27T04:25:58.295Z,86.22
2022-12-27T04:31:55.562Z,86.19
2022-12-27T04:34:48.590Z,86.22
2022-12-27T04:40:22.573Z,86.31
2022-12-27T04:43:16.533Z,86.16
2022-12-27T04:46:09.472Z,86.12
2022-12-27T04:49:04.783Z,86.17
2022-12-27T04:52:13.591Z,86.23
2022-12-27T04:55:23.858Z,86.55
2022-12-27T04:58:00.442Z,86.75
2022-12-27T05:01:02.804Z,86.71
2022-12-27T05:03:37.371Z,86.77
2022-12-27T05:06:17.775Z,87.01
2022-12-27T05:09:11.288Z,86.81
2022-12-27T05:12:10.940Z,87.05
2022-12-27T05:14:41.718Z,87.32
2022-12-27T05:17:33.544Z,87.64
2022-12-27T05:20:37.256Z,87.42
2022-12-27T05:26:36.476Z,87.64
2022-12-27T05:29:18.933Z,87.60
2022-12-27T05:35:02.833Z,87.83
2022-12-27T05:37:42.256Z,87.87
2022-12-27T05:40:25.584Z,88.20
2022-12-27T05:45:48.313Z,87.89
2022-12-27T05:51:19.633Z,88.40
2022-12-27T05:53:51.193Z,87.95
2022-12-27T06:02:37.850Z,88.35
2022-12-27T06:05:29.158Z,88.66
2022-12-27T06:10:47.400Z,88.75
2022-12-27T06:30:01.676Z,88.75
2022-12-27T06:36:11.443Z,88.84
2022-12-27T06:38:47.046Z,88.99
2022-12-27T06:50:48.071Z,88.74
2022-12-27T06:53:43.498Z,88.86
2022-12-27T07:12:20.185Z,89.29
2022-12-27T07:24:47.592Z,89.67
2022-12-27T07:34:20.384Z,90.43
2022-12-27T07:45:34.649Z,90.49
2022-12-27T07:48:30.131Z,90.28
2022-12-27T07:57:09.696Z,90.38
2022-12-27T08:02:40.084Z,90.27
2022-12-27T08:05:21.472Z,90.08
2022-12-27T08:08:11.072Z,90.07
2022-12-27T08:11:11.741Z,90.14
2022-12-27T08:27:07.431Z,90.14
2022-12-27T08:29:49.223Z,90.00
2022-12-27T08:32:24.569Z,90.23
2022-12-27T08:35:25.039Z,90.29
2022-12-27T08:38:10.140Z,90.03
2022-12-27T08:46:49.394Z,89.85
2022-12-27T08:49:17.191Z,89.95
2022-12-27T08:55:06.098Z,89.80
2022-12-27T08:57:41.379Z,89.53
2022-12-27T09:00:17.578Z,89.63
2022-12-27T09:05:48.958Z,88.91
2022-12-27T09:08:26.846Z,87.79
2022-12-27T09:11:29.158Z,87.42
2022-12-27T09:14:08.480Z,86.82
2022-12-27T09:16:45.868Z,86.39
2022-12-27T09:19:31.712Z,86.07
2022-12-27T09:22:09.264Z,85.62
2022-12-27T09:24:36.889Z,85.41
2022-12-27T09:27:16.544Z,85.39
2022-12-27T09:29:48.284Z,85.33
2022-12-27T09:32:28.413Z,84.99
2022-12-27T09:34:59.153Z,84.43
2022-12-27T09:37:39.304Z,84.07
2022-12-27T09:40:13.343Z,83.54
2022-12-27T09:43:16.218Z,83.04
2022-12-27T09:46:03.067Z,82.27
2022-12-27T09:48:47.992Z,82.55
2022-12-27T09:51:22.025Z,82.42
2022-12-27T09:54:10.369Z,82.59
2022-12-27T09:57:18.905Z,82.08
2022-12-27T09:59:55.974Z,81.83
2022-12-27T10:02:37.288Z,80.85
2022-12-27T10:05:21.288Z,80.27
2022-12-27T10:08:11.234Z,80.29
2022-12-27T10:10:54.111Z,79.28
2022-12-27T10:13:22.040Z,79.39
2022-12-27T10:16:13.387Z,79.59
2022-12-27T10:22:41.361Z,77.95
2022-12-27T10:25:24.213Z,77.49
2022-12-27T10:28:16.209Z,76.68
2022-12-27T10:30:53.329Z,76.80
2022-12-27T10:33:26.371Z,76.68
2022-12-27T10:36:09.087Z,77.82
2022-12-27T10:38:53.094Z,77.39
2022-12-27T10:41:22.990Z,76.94
2022-12-27T10:44:09.273Z,77.39
2022-12-27T10:46:49.283Z,77.88
2022-12-27T10:49:28.291Z,78.59
2022-12-27T10:52:24.079Z,78.95
2022-12-27T10:54:54.379Z,79.42
2022-12-27T10:57:38.205Z,80.04
2022-12-27T11:00:28.444Z,80.64
2022-12-27T11:03:04.893Z,80.38
2022-12-27T11:05:50.474Z,80.20
2022-12-27T11:08:28.169Z,79.51
2022-12-27T11:11:34.143Z,79.74
2022-12-27T11:14:21.339Z,78.95
2022-12-27T11:16:58.275Z,79.75
2022-12-27T11:19:33.930Z,79.90
2022-12-27T11:22:13.096Z,80.07
2022-12-27T11:28:49.165Z,79.96
2022-12-27T11:31:29.764Z,80.02
2022-12-27T11:34:08.413Z,79.99
2022-12-27T11:36:41.109Z,80.03
2022-12-27T11:39:35.296Z,80.29
2022-12-27T11:42:08.694Z,81.04
2022-12-27T11:44:52.675Z,81.83
2022-12-27T11:47:30.996Z,81.81
2022-12-27T11:50:23.203Z,81.87
2022-12-27T11:53:11.899Z,82.36
2022-12-27T11:56:22.649Z,82.52
2022-12-27T11:59:45.755Z,83.01
2022-12-27T12:02:30.965Z,82.62
2022-12-27T12:05:14.549Z,82.70
2022-12-27T12:07:59.283Z,82.95
2022-12-27T12:13:54.157Z,82.93
2022-12-27T12:16:47.312Z,82.76
2022-12-27T12:23:31.179Z,82.58
2022-12-27T12:26:27.568Z,82.57
2022-12-27T12:29:29.204Z,82.63
2022-12-27T12:32:16.878Z,82.38
2022-12-27T12:35:17.435Z,82.54
2022-12-27T12:38:13.111Z,82.08
2022-12-27T12:41:30.477Z,82.12
2022-12-27T12:44:12.146Z,82.21
2022-12-27T12:47:08.255Z,82.30
2022-12-27T12:49:38.869Z,82.37
2022-12-27T12:52:51.322Z,82.22
2022-12-27T12:55:40.258Z,82.59
2022-12-27T12:58:31.426Z,82.38
2022-12-27T13:01:36.474Z,82.07
2022-12-27T13:04:28.332Z,81.93
2022-12-27T13:07:25.915Z,81.99
2022-12-27T13:10:48.175Z,81.50
2022-12-27T13:13:49.426Z,81.67
2022-12-27T13:16:46.586Z,81.78
2022-12-27T13:23:15.724Z,82.03
2022-12-27T13:26:43.234Z,82.05
2022-12-27T13:29:42.455Z,82.17
2022-12-27T13:32:37.565Z,82.34
2022-12-27T13:35:50.176Z,82.27
2022-12-27T13:38:58.108Z,82.38
2022-12-27T13:41:45.977Z,82.71
2022-12-27T13:44:53.404Z,82.50
2022-12-27T13:47:49.361Z,82.56
2022-12-27T13:50:49.132Z,82.37
2022-12-27T13:53:59.279Z,82.47
2022-12-27T13:56:58.581Z,82.65
2022-12-27T13:59:56.021Z,82.73
2022-12-27T14:02:48.587Z,82.50
2022-12-27T14:05:45.314Z,82.69
2022-12-27T14:08:49.307Z,82.39
2022-12-27T14:11:59.687Z,82.76
2022-12-27T14:14:36.261Z,82.45
2022-12-27T14:17:24.484Z,82.72
2022-12-27T14:20:43.924Z,82.74
2022-12-27T14:37:07.411Z,82.89
2022-12-27T14:39:58.816Z,82.95
2022-12-27T14:42:54.106Z,82.82
2022-12-27T14:46:07.295Z,83.19
2022-12-27T14:59:50.181Z,82.94
2022-12-27T15:02:55.468Z,83.14
2022-12-27T15:05:45.401Z,83.25
2022-12-27T15:09:05.377Z,83.27
2022-12-27T15:12:22.893Z,83.39
2022-12-27T15:15:10.608Z,83.48
2022-12-27T15:18:16.343Z,83.58
2022-12-27T15:21:11.260Z,83.65
2022-12-27T15:27:49.440Z,84.06
2022-12-27T15:30:41.238Z,84.08
2022-12-27T15:33:28.213Z,84.17
2022-12-27T15:36:03.190Z,83.88
2022-12-27T15:38:55.554Z,83.96
2022-12-27T15:41:56.463Z,86.88
2022-12-27T15:45:02.393Z,71.50
2022-12-27T15:47:50.899Z,76.57
2022-12-27T15:50:45.198Z,81.58
2022-12-27T15:53:21.639Z,70.57
2022-12-27T15:56:32.321Z,74.59
2022-12-27T15:59:40.656Z,79.86
2022-12-27T16:02:38.511Z,81.96
2022-12-27T16:05:33.744Z,82.94
2022-12-27T16:08:37.268Z,83.56
2022-12-27T16:11:19.316Z,83.62
2022-12-27T16:14:03.646Z,84.02
2022-12-27T16:16:32.776Z,84.15
2022-12-27T16:25:48.394Z,84.13
2022-12-27T16:28:35.367Z,84.07
2022-12-27T16:31:08.002Z,84.36
2022-12-27T16:40:34.414Z,84.44
2022-12-27T16:43:21.936Z,84.18
2022-12-27T16:46:09.355Z,84.30
2022-12-27T16:48:48.562Z,84.49
2022-12-27T16:51:42.187Z,84.22
2022-12-27T17:00:46.176Z,84.02
2022-12-27T17:03:28.338Z,84.03
2022-12-27T17:09:31.134Z,84.29
2022-12-27T17:12:24.992Z,84.03
2022-12-27T17:15:00.398Z,84.27
2022-12-27T17:17:37.804Z,84.53
2022-12-27T17:23:36.340Z,84.45
2022-12-27T17:26:23.722Z,84.26
2022-12-27T17:29:16.520Z,84.15
2022-12-27T17:31:51.515Z,84.16
2022-12-27T17:34:51.362Z,84.28
2022-12-27T17:37:35.041Z,84.13
2022-12-27T17:40:19.998Z,83.94
2022-12-27T17:46:39.482Z,84.18
2022-12-27T17:49:21.333Z,84.05
2022-12-27T17:52:07.374Z,84.32
2022-12-27T17:54:59.475Z,84.05
2022-12-27T17:57:52.314Z,83.93
2022-12-27T18:00:29.496Z,84.01
2022-12-27T18:03:00.265Z,83.92
2022-12-27T18:05:40.683Z,83.99
2022-12-27T18:08:25.143Z,83.96
2022-12-27T18:11:05.449Z,83.89
2022-12-27T18:17:09.334Z,83.40
2022-12-27T18:19:39.669Z,83.26
2022-12-27T18:22:31.303Z,83.62
2022-12-27T18:25:00.003Z,83.46
2022-12-27T18:27:38.331Z,83.12
2022-12-27T18:30:06.156Z,83.34
2022-12-27T18:35:28.283Z,82.84
2022-12-27T18:38:05.224Z,82.70
2022-12-27T18:40:53.149Z,82.81
2022-12-27T18:43:23.144Z,82.32
2022-12-27T18:46:07.417Z,82.06
2022-12-27T18:48:50.741Z,82.05
2022-12-27T18:51:18.069Z,82.14
2022-12-27T18:53:54.492Z,81.83
2022-12-27T18:56:32.440Z,81.98
2022-12-27T18:59:13.395Z,81.46
2022-12-27T19:01:43.634Z,81.38
2022-12-27T19:04:29.421Z,81.60
2022-12-27T19:07:08.707Z,81.53
2022-12-27T19:16:45.874Z,81.19
2022-12-27T19:19:56.561Z,81.17
2022-12-27T19:22:56.039Z,81.19
2022-12-27T19:25:38.308Z,81.14
2022-12-27T19:28:10.102Z,80.91
2022-12-27T19:30:48.555Z,80.93
2022-12-27T19:33:41.568Z,80.81
2022-12-27T19:36:18.450Z,80.84
2022-12-27T19:38:54.563Z,80.88
2022-12-27T19:41:21.997Z,80.99
2022-12-27T19:44:00.620Z,80.89
2022-12-27T19:46:37.486Z,81.06
2022-12-27T19:49:40.143Z,80.93
2022-12-27T19:52:02.526Z,80.64
2022-12-27T19:54:31.069Z,81.00
2022-12-27T19:57:08.756Z,80.54
2022-12-27T19:59:37.926Z,80.61
2022-12-27T20:05:12.429Z,80.82
2022-12-27T20:07:55.167Z,80.67
2022-12-27T20:10:45.440Z,80.66
2022-12-27T20:13:21.665Z,81.07
2022-12-27T20:16:04.853Z,80.91
2022-12-27T20:18:32.124Z,80.80
2022-12-27T20:26:55.172Z,80.82
2022-12-27T20:32:26.514Z,81.02
2022-12-27T20:35:02.984Z,81.02
2022-12-27T20:37:33.574Z,80.97
2022-12-27T20:40:07.408Z,80.97
2022-12-27T20:42:42.125Z,81.04
2022-12-27T20:45:19.805Z,80.88
2022-12-27T20:47:50.117Z,80.85
2022-12-27T20:50:24.570Z,80.99
2022-12-27T20:52:54.948Z,80.56
2022-12-27T20:55:31.461Z,80.69
2022-12-27T20:58:08.364Z,80.65
2022-12-27T21:00:41.279Z,80.58
2022-12-27T21:03:18.801Z,80.59
2022-12-27T21:05:48.656Z,80.57
2022-12-27T21:11:16.245Z,80.30
2022-12-27T21:13:57.483Z,80.23
2022-12-27T21:16:36.607Z,80.24
2022-12-27T21:19:13.476Z,80.18
2022-12-27T21:21:43.605Z,80.16
2022-12-27T21:27:00.599Z,80.21
2022-12-27T21:29:34.494Z,79.95
2022-12-27T21:32:04.560Z,80.07
2022-12-27T21:41:46.350Z,79.56
2022-12-27T21:49:41.662Z,79.59
2022-12-27T21:52:18.533Z,79.58
2022-12-27T21:54:46.179Z,79.62
2022-12-27T22:03:57.585Z,79.21
2022-12-27T22:06:37.823Z,79.08
2022-12-27T22:09:26.536Z,78.97
2022-12-27T22:12:16.649Z,78.99
2022-12-27T22:14:49.604Z,78.84
2022-12-27T22:20:05.449Z,78.51
2022-12-27T22:22:41.074Z,79.02
2022-12-27T22:25:10.491Z,78.84
2022-12-27T22:31:30.854Z,78.89
2022-12-27T22:40:45.740Z,78.89
2022-12-27T22:43:16.633Z,78.87
2022-12-27T22:48:33.746Z,78.88
2022-12-27T22:57:20.678Z,78.85
2022-12-27T22:59:54.731Z,78.71
2022-12-27T23:02:24.248Z,78.65
2022-12-27T23:04:57.444Z,78.77
2022-12-27T23:10:22.343Z,79.15
2022-12-27T23:18:54.544Z,79.22
2022-12-27T23:21:32.833Z,79.31
2022-12-27T23:24:08.515Z,79.41
2022-12-27T23:29:31.449Z,79.73
2022-12-27T23:34:59.851Z,79.60
2022-12-27T23:37:29.803Z,79.36
2022-12-27T23:40:06.414Z,79.54
2022-12-27T23:42:33.610Z,79.27
2022-12-27T23:48:48.535Z,79.54
2022-12-27T23:51:27.617Z,79.59
2022-12-27T23:53:57.904Z,79.95
2022-12-27T23:59:20.618Z,80.00
